createdAt,value
2023-10-14T00:01:32.882Z,17.69
2023-10-14T00:04:00.943Z,17.72
2023-10-14T00:06:28.653Z,17.67
2023-10-14T00:08:58.516Z,17.70
2023-10-14T00:11:28.325Z,17.68
2023-10-14T00:13:54.956Z,17.66
2023-10-14T00:16:24.094Z,17.62
2023-10-14T00:18:51.102Z,17.62
2023-10-14T00:21:17.822Z,17.64
2023-10-14T00:23:44.619Z,17.71
2023-10-14T00:26:21.727Z,17.70
2023-10-14T00:28:55.483Z,17.72
2023-10-14T00:31:24.232Z,17.72
2023-10-14T00:33:53.871Z,17.73
2023-10-14T00:36:22.206Z,17.73
2023-10-14T00:39:12.832Z,17.77
2023-10-14T00:41:40.786Z,17.77
2023-10-14T00:44:07.393Z,17.78
2023-10-14T00:46:34.871Z,17.89
2023-10-14T00:49:04.675Z,17.89
2023-10-14T00:51:34.634Z,17.88
2023-10-14T00:54:05.455Z,17.86
2023-10-14T00:56:32.818Z,17.86
2023-10-14T00:59:05.829Z,17.85
2023-10-14T01:01:33.284Z,17.90
2023-10-14T01:04:19.957Z,18.11
2023-10-14T01:07:02.792Z,18.04
2023-10-14T01:09:54.524Z,18.12
2023-10-14T01:12:30.786Z,18.04
2023-10-14T01:15:00.302Z,18.14
2023-10-14T01:17:33.827Z,18.22
2023-10-14T01:20:27.512Z,18.18
2023-10-14T01:23:01.786Z,18.22
2023-10-14T01:25:33.864Z,18.30
2023-10-14T01:28:07.709Z,18.38
2023-10-14T01:30:39.085Z,18.38
2023-10-14T01:33:17.604Z,18.53
2023-10-14T01:35:46.865Z,18.54
2023-10-14T01:38:15.045Z,18.53
2023-10-14T01:40:50.208Z,18.62
2023-10-14T01:43:17.353Z,18.63
2023-10-14T01:45:55.991Z,18.61
2023-10-14T01:48:26.836Z,18.63
2023-10-14T01:50:58.917Z,18.74
2023-10-14T01:53:28.609Z,18.74
2023-10-14T01:55:59.190Z,18.86
2023-10-14T01:58:28.675Z,19.05
2023-10-14T02:01:06.235Z,19.09
2023-10-14T02:03:43.674Z,19.18
2023-10-14T02:06:20.531Z,19.15
2023-10-14T02:08:48.925Z,19.14
2023-10-14T02:11:21.956Z,19.14
2023-10-14T02:13:53.290Z,19.09
2023-10-14T02:16:26.666Z,19.13
2023-10-14T02:19:14.039Z,19.18
2023-10-14T02:21:41.941Z,19.11
2023-10-14T02:24:11.758Z,19.19
2023-10-14T02:26:40.306Z,19.15
2023-10-14T02:29:12.660Z,19.26
2023-10-14T02:31:39.634Z,19.19
2023-10-14T02:34:08.147Z,19.24
2023-10-14T02:36:36.537Z,19.31
2023-10-14T02:39:05.503Z,19.38
2023-10-14T02:41:33.176Z,19.36
2023-10-14T02:44:09.502Z,19.33
2023-10-14T02:46:43.938Z,19.33
2023-10-14T02:49:19.553Z,19.53
2023-10-14T02:51:47.077Z,19.59
2023-10-14T02:54:28.099Z,19.61
2023-10-14T02:56:55.890Z,19.68
2023-10-14T02:59:36.870Z,19.58
2023-10-14T03:02:15.182Z,19.58
2023-10-14T03:04:53.164Z,19.58
2023-10-14T03:07:32.614Z,19.62
2023-10-14T03:10:27.272Z,19.60
2023-10-14T03:12:53.946Z,19.62
2023-10-14T03:15:23.384Z,19.73
2023-10-14T03:17:59.414Z,19.67
2023-10-14T03:20:31.055Z,19.61
2023-10-14T03:23:10.888Z,19.60
2023-10-14T03:25:38.886Z,19.61
2023-10-14T03:28:11.932Z,19.64
2023-10-14T03:30:40.159Z,19.64
2023-10-14T03:33:16.411Z,19.65
2023-10-14T03:35:44.724Z,19.62
2023-10-14T03:38:26.424Z,19.70
2023-10-14T03:41:04.177Z,19.66
2023-10-14T03:43:53.553Z,19.67
2023-10-14T03:46:32.177Z,19.68
2023-10-14T03:48:59.973Z,19.62
2023-10-14T03:51:26.919Z,19.68
2023-10-14T03:53:58.627Z,19.67
2023-10-14T03:56:27.023Z,19.58
2023-10-14T03:58:56.619Z,19.54
2023-10-14T04:01:40.470Z,19.51
2023-10-14T04:04:20.585Z,19.53
2023-10-14T04:07:01.235Z,19.53
2023-10-14T04:09:57.492Z,19.50
2023-10-14T04:12:38.596Z,19.42
2023-10-14T04:15:07.595Z,19.28
2023-10-14T04:17:34.311Z,19.07
2023-10-14T04:20:10.455Z,18.89
2023-10-14T04:22:41.157Z,18.50
2023-10-14T04:25:12.391Z,18.23
2023-10-14T04:27:47.446Z,18.09
2023-10-14T04:30:22.039Z,18.06
2023-10-14T04:32:49.654Z,18.06
2023-10-14T04:35:24.287Z,17.93
2023-10-14T04:37:54.396Z,17.84
2023-10-14T04:40:35.779Z,17.96
2023-10-14T04:43:38.676Z,17.92
2023-10-14T04:46:14.613Z,17.90
2023-10-14T04:49:00.310Z,17.94
2023-10-14T04:51:48.674Z,17.93
2023-10-14T04:54:20.751Z,17.96
2023-10-14T04:56:48.092Z,17.99
2023-10-14T04:59:21.096Z,18.03
2023-10-14T05:01:49.364Z,18.05
2023-10-14T05:04:21.103Z,18.01
2023-10-14T05:06:49.025Z,17.97
2023-10-14T05:09:41.030Z,17.99
2023-10-14T05:12:15.495Z,18.06
2023-10-14T05:14:43.363Z,18.04
2023-10-14T05:17:16.246Z,17.98
2023-10-14T05:19:44.455Z,17.99
2023-10-14T05:22:14.907Z,17.90
2023-10-14T05:24:49.829Z,17.97
2023-10-14T05:27:21.164Z,17.98
2023-10-14T05:29:54.804Z,17.97
2023-10-14T05:32:25.887Z,17.81
2023-10-14T05:34:53.760Z,17.77
2023-10-14T05:37:22.955Z,17.71
2023-10-14T05:39:52.029Z,17.60
2023-10-14T05:42:22.338Z,17.49
2023-10-14T05:44:50.898Z,17.40
2023-10-14T05:47:19.226Z,17.35
2023-10-14T05:49:46.354Z,16.87
2023-10-14T05:52:14.456Z,16.05
2023-10-14T05:54:46.651Z,15.31
2023-10-14T05:57:13.549Z,14.80
2023-10-14T05:59:40.554Z,14.88
2023-10-14T06:02:09.390Z,14.65
2023-10-14T06:04:42.212Z,14.35
2023-10-14T06:07:10.285Z,14.31
2023-10-14T06:09:37.716Z,14.04
2023-10-14T06:12:13.989Z,14.07
2023-10-14T06:14:45.073Z,13.90
2023-10-14T06:17:15.969Z,13.67
2023-10-14T06:19:44.424Z,13.69
2023-10-14T06:22:14.844Z,13.63
2023-10-14T06:24:43.112Z,13.66
2023-10-14T06:27:10.074Z,13.54
2023-10-14T06:29:37.698Z,13.51
2023-10-14T06:32:19.667Z,13.48
2023-10-14T06:34:50.957Z,13.47
2023-10-14T06:37:17.918Z,13.52
2023-10-14T06:39:44.685Z,13.39
2023-10-14T06:42:13.593Z,13.38
2023-10-14T06:44:47.004Z,13.34
2023-10-14T06:47:14.332Z,13.36
2023-10-14T06:49:43.423Z,13.30
2023-10-14T06:52:13.632Z,13.22
2023-10-14T06:54:42.714Z,13.25
2023-10-14T06:57:10.031Z,13.25
2023-10-14T06:59:39.861Z,13.12
2023-10-14T07:02:07.623Z,13.18
2023-10-14T07:04:39.992Z,13.23
2023-10-14T07:07:10.818Z,13.18
2023-10-14T07:09:38.994Z,12.87
2023-10-14T07:12:15.159Z,12.70
2023-10-14T07:14:42.572Z,12.55
2023-10-14T07:17:09.327Z,12.34
2023-10-14T07:19:36.981Z,12.33
2023-10-14T07:22:09.386Z,12.08
2023-10-14T07:24:37.097Z,12.12
2023-10-14T07:27:04.822Z,12.10
2023-10-14T07:29:31.636Z,11.96
2023-10-14T07:31:58.527Z,11.99
2023-10-14T07:34:25.312Z,12.00
2023-10-14T07:36:52.385Z,12.04
2023-10-14T07:39:31.055Z,12.13
2023-10-14T07:41:58.072Z,12.04
2023-10-14T07:44:24.841Z,12.07
2023-10-14T07:46:51.974Z,12.07
2023-10-14T07:49:19.393Z,11.86
2023-10-14T07:51:47.460Z,11.96
2023-10-14T07:54:14.225Z,11.93
2023-10-14T07:56:44.409Z,11.89
2023-10-14T07:59:11.800Z,11.90
2023-10-14T08:01:40.006Z,12.09
2023-10-14T08:04:09.300Z,12.24
2023-10-14T08:06:41.671Z,12.20
2023-10-14T08:09:38.650Z,12.15
2023-10-14T08:12:06.692Z,12.36
2023-10-14T08:14:33.326Z,12.15
2023-10-14T08:17:00.259Z,12.20
2023-10-14T08:19:27.716Z,12.19
2023-10-14T08:21:54.528Z,12.24
2023-10-14T08:24:22.070Z,12.31
2023-10-14T08:26:51.123Z,12.48
2023-10-14T08:29:21.745Z,12.51
2023-10-14T08:31:55.066Z,12.41
2023-10-14T08:34:25.330Z,12.48
2023-10-14T08:36:52.152Z,12.64
2023-10-14T08:39:19.409Z,12.65
2023-10-14T08:41:49.192Z,12.61
2023-10-14T08:44:21.763Z,12.72
2023-10-14T08:46:49.261Z,12.58
2023-10-14T08:49:21.036Z,12.54
2023-10-14T08:51:54.802Z,12.40
2023-10-14T08:54:25.372Z,12.24
2023-10-14T08:56:53.127Z,12.11
2023-10-14T08:59:19.831Z,12.04
2023-10-14T09:01:53.050Z,12.03
2023-10-14T09:04:30.244Z,12.06
2023-10-14T09:07:04.281Z,12.14
2023-10-14T09:09:34.405Z,12.25
2023-10-14T09:12:12.820Z,12.29
2023-10-14T09:14:40.859Z,12.34
2023-10-14T09:17:12.080Z,12.29
2023-10-14T09:19:49.990Z,12.35
2023-10-14T09:22:29.298Z,12.35
2023-10-14T09:25:00.428Z,12.28
2023-10-14T09:27:27.829Z,12.29
2023-10-14T09:29:58.382Z,12.19
2023-10-14T09:32:26.302Z,12.37
2023-10-14T09:34:53.700Z,12.60
2023-10-14T09:37:22.903Z,12.69
2023-10-14T09:39:52.827Z,12.75
2023-10-14T09:42:22.746Z,12.96
2023-10-14T09:44:50.368Z,13.13
2023-10-14T09:47:21.204Z,13.03
2023-10-14T09:49:48.918Z,13.13
2023-10-14T09:52:18.549Z,13.32
2023-10-14T09:54:50.931Z,13.31
2023-10-14T09:57:18.481Z,13.33
2023-10-14T09:59:48.277Z,13.23
2023-10-14T10:02:15.677Z,13.01
2023-10-14T10:04:49.232Z,13.00
2023-10-14T10:07:22.250Z,13.07
2023-10-14T10:10:02.894Z,13.15
2023-10-14T10:12:32.302Z,13.30
2023-10-14T10:15:03.114Z,13.26
2023-10-14T10:17:30.143Z,13.21
2023-10-14T10:20:10.730Z,13.04
2023-10-14T10:22:52.371Z,13.03
2023-10-14T10:25:22.133Z,13.10
2023-10-14T10:27:51.429Z,13.14
2023-10-14T10:30:20.910Z,13.20
2023-10-14T10:32:51.831Z,13.31
2023-10-14T10:35:22.254Z,13.29
2023-10-14T10:37:57.886Z,13.33
2023-10-14T10:40:27.598Z,13.28
2023-10-14T10:43:12.918Z,13.36
2023-10-14T10:45:44.087Z,13.35
2023-10-14T10:48:15.658Z,13.63
2023-10-14T10:50:50.307Z,13.74
2023-10-14T10:53:20.138Z,13.88
2023-10-14T10:55:49.107Z,13.92
2023-10-14T10:58:17.152Z,14.06
2023-10-14T11:00:48.599Z,14.09
2023-10-14T11:03:17.057Z,14.04
2023-10-14T11:05:45.916Z,14.26
2023-10-14T11:08:13.068Z,14.44
2023-10-14T11:10:42.245Z,14.48
2023-10-14T11:13:10.078Z,14.21
2023-10-14T11:15:38.438Z,14.19
2023-10-14T11:18:06.246Z,14.10
2023-10-14T11:20:47.141Z,14.09
2023-10-14T11:23:15.240Z,14.10
2023-10-14T11:25:55.324Z,14.04
2023-10-14T11:28:27.713Z,14.09
2023-10-14T11:30:56.881Z,14.15
2023-10-14T11:33:24.395Z,14.02
2023-10-14T11:35:51.467Z,14.12
2023-10-14T11:38:20.197Z,14.35
2023-10-14T11:40:50.926Z,14.49
2023-10-14T11:43:19.019Z,14.74
2023-10-14T11:45:45.879Z,14.88
2023-10-14T11:48:34.717Z,14.78
2023-10-14T11:51:03.650Z,14.77
2023-10-14T11:53:33.485Z,14.80
2023-10-14T11:56:05.533Z,14.90
2023-10-14T11:58:34.066Z,14.85
2023-10-14T12:01:01.329Z,14.57
2023-10-14T12:03:28.589Z,14.42
2023-10-14T12:06:00.430Z,14.31
2023-10-14T12:08:38.998Z,14.75
2023-10-14T12:21:46.635Z,14.93
2023-10-14T12:24:13.346Z,15.26
2023-10-14T12:26:45.736Z,14.75
2023-10-14T12:29:13.606Z,14.79
2023-10-14T12:31:48.441Z,14.69
2023-10-14T12:34:16.705Z,15.11
2023-10-14T12:36:45.478Z,15.41
2023-10-14T12:39:23.114Z,15.68
2023-10-14T12:41:51.951Z,16.08
2023-10-14T12:44:19.176Z,16.37
2023-10-14T12:46:47.232Z,16.53
2023-10-14T12:49:19.841Z,16.37
2023-10-14T12:51:47.408Z,16.25
2023-10-14T12:54:20.764Z,16.11
2023-10-14T12:56:48.806Z,16.05
2023-10-14T12:59:15.814Z,16.50
2023-10-14T13:01:48.151Z,16.64
2023-10-14T13:04:18.186Z,16.35
2023-10-14T13:06:51.135Z,16.41
2023-10-14T13:09:18.203Z,16.96
2023-10-14T13:11:45.084Z,16.54
2023-10-14T13:14:27.471Z,15.79
2023-10-14T13:17:02.463Z,15.98
2023-10-14T13:19:36.790Z,16.00
2023-10-14T13:22:10.898Z,16.54
2023-10-14T13:24:41.597Z,16.72
2023-10-14T13:27:08.448Z,16.64
2023-10-14T13:29:37.411Z,15.95
2023-10-14T13:32:04.470Z,15.60
2023-10-14T13:34:33.661Z,15.21
2023-10-14T13:37:01.016Z,14.75
2023-10-14T13:39:35.796Z,14.89
2023-10-14T13:42:03.621Z,14.90
2023-10-14T13:44:30.266Z,14.69
2023-10-14T13:46:57.051Z,14.59
2023-10-14T13:49:27.047Z,14.91
2023-10-14T13:51:54.276Z,14.90
2023-10-14T13:54:23.468Z,14.75
2023-10-14T13:59:32.641Z,15.59
2023-10-14T14:01:59.488Z,15.50
2023-10-14T14:04:46.810Z,15.27
2023-10-14T14:07:14.510Z,14.88
2023-10-14T14:09:41.953Z,14.26
2023-10-14T14:12:08.809Z,14.41
2023-10-14T14:14:38.159Z,14.56
2023-10-14T14:17:07.536Z,14.67
2023-10-14T14:19:34.525Z,14.78
2023-10-14T14:22:01.340Z,14.84
2023-10-14T14:24:28.113Z,14.90
2023-10-14T14:26:54.836Z,15.09
2023-10-14T14:29:21.604Z,15.23
2023-10-14T14:31:48.670Z,15.33
2023-10-14T14:34:15.746Z,15.57
2023-10-14T14:36:46.179Z,15.69
2023-10-14T14:39:16.558Z,15.33
2023-10-14T14:41:45.601Z,15.14
2023-10-14T14:44:14.810Z,15.29
2023-10-14T14:46:42.256Z,15.41
2023-10-14T14:49:13.495Z,15.18
2023-10-14T14:51:43.761Z,15.15
2023-10-14T14:54:11.150Z,14.97
2023-10-14T14:56:38.742Z,14.86
2023-10-14T14:59:05.403Z,14.56
2023-10-14T15:01:32.885Z,14.18
2023-10-14T15:03:59.713Z,14.13
2023-10-14T15:06:26.504Z,14.29
2023-10-14T15:08:53.373Z,14.11
2023-10-14T15:11:21.061Z,13.95
2023-10-14T15:13:47.841Z,13.93
2023-10-14T15:16:18.567Z,13.89
2023-10-14T15:18:49.749Z,13.77
2023-10-14T15:21:19.283Z,13.73
2023-10-14T15:23:46.026Z,13.68
2023-10-14T15:26:12.900Z,13.78
2023-10-14T15:28:41.338Z,13.66
2023-10-14T15:31:09.417Z,13.63
2023-10-14T15:33:36.278Z,13.63
2023-10-14T15:36:12.678Z,13.63
2023-10-14T15:38:39.941Z,13.60
2023-10-14T15:41:07.598Z,13.63
2023-10-14T15:43:34.656Z,13.60
2023-10-14T15:46:03.060Z,13.46
2023-10-14T15:48:33.745Z,13.50
2023-10-14T15:51:00.462Z,13.36
2023-10-14T15:53:29.412Z,13.22
2023-10-14T15:55:57.566Z,13.21
2023-10-14T15:58:38.670Z,13.24
2023-10-14T16:01:08.917Z,13.23
2023-10-14T16:03:36.089Z,13.03
2023-10-14T16:06:02.911Z,12.88
2023-10-14T16:08:29.675Z,12.92
2023-10-14T16:10:56.330Z,12.85
2023-10-14T16:13:24.498Z,12.82
2023-10-14T16:15:54.371Z,12.82
2023-10-14T16:18:22.096Z,12.80
2023-10-14T16:20:51.914Z,12.80
2023-10-14T16:23:19.136Z,12.68
2023-10-14T16:25:46.113Z,12.68
2023-10-14T16:28:15.216Z,12.51
2023-10-14T16:30:42.111Z,12.47
2023-10-14T16:33:09.219Z,12.39
2023-10-14T16:35:36.057Z,12.39
2023-10-14T16:38:08.366Z,12.38
2023-10-14T16:40:36.729Z,12.33
2023-10-14T16:43:05.281Z,12.25
2023-10-14T16:45:37.157Z,12.22
2023-10-14T16:48:13.637Z,12.18
2023-10-14T16:50:44.527Z,12.17
2023-10-14T16:53:12.024Z,12.24
2023-10-14T16:55:40.056Z,12.19
2023-10-14T16:58:07.201Z,11.92
2023-10-14T17:00:35.251Z,11.67
2023-10-14T17:03:03.868Z,11.61
2023-10-14T17:05:32.164Z,11.56
2023-10-14T17:08:03.927Z,11.58
2023-10-14T17:10:33.170Z,11.52
2023-10-14T17:13:02.007Z,11.43
2023-10-14T17:15:31.892Z,11.38
2023-10-14T17:18:02.416Z,11.35
2023-10-14T17:20:31.477Z,11.37
2023-10-14T17:23:01.833Z,11.36
2023-10-14T17:25:33.405Z,11.32
2023-10-14T17:28:04.868Z,11.23
2023-10-14T17:30:33.294Z,11.13
2023-10-14T17:33:11.113Z,11.07
2023-10-14T17:35:42.779Z,11.08
2023-10-14T17:38:10.032Z,11.13
2023-10-14T17:40:42.519Z,11.04
2023-10-14T17:43:12.232Z,10.94
2023-10-14T17:45:42.176Z,10.77
2023-10-14T17:48:10.734Z,10.69
2023-10-14T17:50:39.580Z,10.48
2023-10-14T17:53:17.203Z,10.42
2023-10-14T17:55:47.624Z,10.34
2023-10-14T17:58:15.007Z,10.37
2023-10-14T18:00:43.005Z,10.27
2023-10-14T18:03:14.425Z,10.21
2023-10-14T18:05:47.769Z,9.95
2023-10-14T18:08:20.936Z,9.99
2023-10-14T18:10:48.141Z,9.84
2023-10-14T18:13:15.789Z,9.87
2023-10-14T18:15:45.474Z,9.90
2023-10-14T18:18:13.678Z,9.92
2023-10-14T18:20:40.912Z,9.88
2023-10-14T18:23:08.217Z,9.92
2023-10-14T18:25:41.939Z,9.91
2023-10-14T18:28:09.857Z,9.85
2023-10-14T18:30:41.591Z,9.88
2023-10-14T18:33:10.419Z,9.76
2023-10-14T18:35:39.930Z,9.68
2023-10-14T18:38:12.093Z,9.64
2023-10-14T18:40:40.197Z,9.61
2023-10-14T18:43:08.778Z,9.65
2023-10-14T18:45:36.283Z,9.73
2023-10-14T18:48:09.640Z,9.69
2023-10-14T18:50:38.965Z,9.70
2023-10-14T18:53:10.079Z,9.68
2023-10-14T18:55:42.010Z,9.63
2023-10-14T18:58:12.470Z,9.60
2023-10-14T19:00:47.999Z,9.56
2023-10-14T19:03:15.681Z,9.45
2023-10-14T19:05:42.758Z,9.37
2023-10-14T19:08:13.850Z,9.27
2023-10-14T19:10:48.493Z,9.16
2023-10-14T19:13:17.673Z,8.98
2023-10-14T19:15:54.501Z,8.79
2023-10-14T19:18:21.540Z,8.73
2023-10-14T19:20:48.317Z,8.75
2023-10-14T19:23:17.567Z,8.69
2023-10-14T19:25:49.841Z,8.69
2023-10-14T19:28:22.569Z,8.46
2023-10-14T19:30:54.532Z,8.46
2023-10-14T19:33:26.023Z,8.44
2023-10-14T19:35:57.551Z,8.29
2023-10-14T19:38:24.635Z,8.26
2023-10-14T19:41:03.822Z,8.36
2023-10-14T19:43:33.232Z,8.38
2023-10-14T19:46:01.788Z,8.33
2023-10-14T19:48:28.695Z,8.31
2023-10-14T19:50:55.389Z,8.20
2023-10-14T19:53:24.066Z,8.18
2023-10-14T19:55:51.051Z,8.19
2023-10-14T19:58:19.036Z,8.09
2023-10-14T20:00:51.040Z,8.12
2023-10-14T20:03:20.657Z,8.14
2023-10-14T20:05:48.016Z,8.13
2023-10-14T20:08:22.876Z,8.22
2023-10-14T20:10:52.177Z,8.26
2023-10-14T20:13:19.925Z,8.22
2023-10-14T20:15:48.483Z,8.20
2023-10-14T20:18:20.567Z,8.15
2023-10-14T20:20:50.254Z,8.09
2023-10-14T20:23:18.865Z,8.07
2023-10-14T20:25:55.483Z,8.09
2023-10-14T20:28:22.552Z,8.18
2023-10-14T20:30:50.416Z,8.13
2023-10-14T20:33:20.134Z,8.12
2023-10-14T20:35:47.080Z,8.12
2023-10-14T20:38:14.626Z,7.93
2023-10-14T20:40:45.022Z,7.96
2023-10-14T20:43:12.649Z,7.96
2023-10-14T20:45:49.342Z,7.90
2023-10-14T20:48:19.112Z,7.95
2023-10-14T20:50:49.791Z,7.98
2023-10-14T20:53:19.508Z,7.98
2023-10-14T20:55:49.178Z,7.89
2023-10-14T20:58:16.501Z,7.92
2023-10-14T21:00:46.160Z,7.84
2023-10-14T21:03:22.061Z,7.85
2023-10-14T21:05:57.578Z,7.81
2023-10-14T21:08:28.463Z,7.76
2023-10-14T21:10:59.414Z,7.66
2023-10-14T21:13:28.158Z,7.59
2023-10-14T21:16:02.635Z,7.62
2023-10-14T21:18:30.484Z,7.64
2023-10-14T21:20:57.171Z,7.51
2023-10-14T21:23:24.400Z,7.52
2023-10-14T21:26:00.835Z,7.51
2023-10-14T21:28:30.791Z,7.40
2023-10-14T21:30:58.066Z,7.38
2023-10-14T21:33:25.101Z,7.35
2023-10-14T21:35:51.822Z,7.38
2023-10-14T21:38:18.685Z,7.34
2023-10-14T21:40:49.511Z,7.31
2023-10-14T21:43:18.820Z,7.25
2023-10-14T21:45:46.472Z,7.23
2023-10-14T21:48:33.838Z,7.14
2023-10-14T21:51:00.516Z,7.08
2023-10-14T21:53:27.630Z,7.08
2023-10-14T21:55:54.963Z,7.06
2023-10-14T21:58:21.674Z,7.02
2023-10-14T22:01:11.433Z,7.01
2023-10-14T22:03:38.202Z,7.00
2023-10-14T22:06:08.602Z,6.99
2023-10-14T22:08:38.174Z,6.87
2023-10-14T22:11:09.551Z,6.80
2023-10-14T22:13:38.326Z,6.76
2023-10-14T22:16:09.443Z,6.72
2023-10-14T22:18:37.734Z,6.71
2023-10-14T22:21:05.038Z,6.67
2023-10-14T22:23:31.676Z,6.70
2023-10-14T22:25:58.405Z,6.61
2023-10-14T22:28:25.142Z,6.61
2023-10-14T22:30:52.471Z,6.63
2023-10-14T22:33:19.774Z,6.63
2023-10-14T22:35:46.431Z,6.61
2023-10-14T22:38:13.464Z,6.60
2023-10-14T22:40:44.069Z,6.58
2023-10-14T22:43:11.801Z,6.53
2023-10-14T22:45:39.205Z,6.51
2023-10-14T22:48:07.700Z,6.54
2023-10-14T22:50:34.821Z,6.51
2023-10-14T22:53:01.429Z,6.45
2023-10-14T22:55:29.307Z,6.46
2023-10-14T22:57:57.468Z,6.45
2023-10-14T23:00:30.832Z,6.48
2023-10-14T23:02:58.660Z,6.47
2023-10-14T23:05:30.391Z,6.40
2023-10-14T23:08:00.755Z,6.36
2023-10-14T23:10:33.422Z,6.32
2023-10-14T23:13:01.506Z,6.30
2023-10-14T23:15:29.336Z,6.27
2023-10-14T23:17:57.998Z,6.22
2023-10-14T23:20:29.716Z,6.17
2023-10-14T23:22:58.514Z,6.17
2023-10-14T23:25:27.426Z,6.12
2023-10-14T23:27:55.904Z,6.04
2023-10-14T23:30:23.928Z,6.04
2023-10-14T23:32:56.585Z,6.01
2023-10-14T23:35:25.113Z,6.02
2023-10-14T23:37:54.111Z,5.96
2023-10-14T23:40:23.880Z,5.94
2023-10-14T23:42:52.663Z,5.93
2023-10-14T23:45:19.423Z,5.89
2023-10-14T23:47:51.033Z,5.86
2023-10-14T23:50:19.398Z,5.87
2023-10-14T23:52:50.853Z,5.89
2023-10-14T23:55:22.508Z,5.89
2023-10-14T23:57:50.138Z,5.88
